Mugla, Turkey
Current Conditions -  °F | °C
As of 10:50 AM on Sunday 26 Oct 2014 (Local Time) from LTFE Reporting Station
Smoke Smoke  
Wind Chill: 63°   Ceiling: 10000
Heat Index: 63°   Visibility: 6mi
Dew Point: 59°   Wind: 3mph
Humidity: 88%   Direction: 80°E
Pressure: 29.97"   Gusts: NA
Location:  37.22°N, 28.36°E
Report Text: LTFE 260750Z 08003KT 9999 3000NE FU SCT030 BKN100 17/15 Q1015 RESHRA BECMG TL0850 NSW
Loading
Personal Weather Stations






























Interactive Weather Map
Tropical Storm Tracking
New forecast layout! Learn more

10-Day Weather Forecast

Advertisements
Track Severe Weather on mobile